sensor_id;sensor_type;location;lat;lon;timestamp;temperature;humidity
20815;DHT22;10568;48.176;16.316;2022-12-18T00:03:48;-0.50;99.90
20815;DHT22;10568;48.176;16.316;2022-12-18T00:06:15;-0.60;99.90
20815;DHT22;10568;48.176;16.316;2022-12-18T00:08:41;-0.60;99.90
20815;DHT22;10568;48.176;16.316;2022-12-18T00:11:10;-0.60;99.90
20815;DHT22;10568;48.176;16.316;2022-12-18T00:13:36;-0.60;99.90
20815;DHT22;10568;48.176;16.316;2022-12-18T00:16:07;-0.60;99.90
20815;DHT22;10568;48.176;16.316;2022-12-18T00:18:34;-0.60;99.90
20815;DHT22;10568;48.176;16.316;2022-12-18T00:21:01;-0.60;99.90
20815;DHT22;10568;48.176;16.316;2022-12-18T00:23:27;-0.60;99.90
20815;DHT22;10568;48.176;16.316;2022-12-18T00:25:53;-0.70;99.90
20815;DHT22;10568;48.176;16.316;2022-12-18T00:28:18;-0.70;99.90
20815;DHT22;10568;48.176;16.316;2022-12-18T00:30:44;-0.70;99.90
20815;DHT22;10568;48.176;16.316;2022-12-18T00:33:10;-0.80;99.90
20815;DHT22;10568;48.176;16.316;2022-12-18T00:35:36;-0.80;99.90
20815;DHT22;10568;48.176;16.316;2022-12-18T00:38:01;-0.90;99.90
20815;DHT22;10568;48.176;16.316;2022-12-18T00:40:27;-1.00;99.90
20815;DHT22;10568;48.176;16.316;2022-12-18T00:42:53;-1.00;99.90
20815;DHT22;10568;48.176;16.316;2022-12-18T00:45:23;-1.10;99.90
20815;DHT22;10568;48.176;16.316;2022-12-18T00:47:49;-1.10;99.90
20815;DHT22;10568;48.176;16.316;2022-12-18T00:50:14;-1.20;99.90
20815;DHT22;10568;48.176;16.316;2022-12-18T00:52:40;-1.30;99.90
20815;DHT22;10568;48.176;16.316;2022-12-18T00:55:06;-1.30;99.90
20815;DHT22;10568;48.176;16.316;2022-12-18T00:57:32;-1.40;99.90
20815;DHT22;10568;48.176;16.316;2022-12-18T00:59:58;-1.50;99.90
20815;DHT22;10568;48.176;16.316;2022-12-18T01:02:23;-1.60;99.90
20815;DHT22;10568;48.176;16.316;2022-12-18T01:04:49;-1.60;99.90
20815;DHT22;10568;48.176;16.316;2022-12-18T01:07:15;-1.70;99.90
20815;DHT22;10568;48.176;16.316;2022-12-18T01:09:41;-1.80;99.90
20815;DHT22;10568;48.176;16.316;2022-12-18T01:12:07;-1.80;99.90
20815;DHT22;10568;48.176;16.316;2022-12-18T01:14:32;-1.80;99.90
20815;DHT22;10568;48.176;16.316;2022-12-18T01:16:58;-1.80;99.90
20815;DHT22;10568;48.176;16.316;2022-12-18T01:19:24;-1.90;99.90
20815;DHT22;10568;48.176;16.316;2022-12-18T01:21:49;-2.00;99.90
20815;DHT22;10568;48.176;16.316;2022-12-18T01:24:15;-2.00;99.90
20815;DHT22;10568;48.176;16.316;2022-12-18T01:26:41;-2.10;99.90
20815;DHT22;10568;48.176;16.316;2022-12-18T01:29:06;-2.00;99.90
20815;DHT22;10568;48.176;16.316;2022-12-18T01:31:33;-2.10;99.90
20815;DHT22;10568;48.176;16.316;2022-12-18T01:34:03;-2.10;99.90
20815;DHT22;10568;48.176;16.316;2022-12-18T01:36:32;-2.10;99.90
20815;DHT22;10568;48.176;16.316;2022-12-18T01:39:12;-2.20;99.90
20815;DHT22;10568;48.176;16.316;2022-12-18T01:41:38;-2.30;99.90
20815;DHT22;10568;48.176;16.316;2022-12-18T01:50:34;-2.40;99.90
20815;DHT22;10568;48.176;16.316;2022-12-18T01:53:10;-2.40;99.90
20815;DHT22;10568;48.176;16.316;2022-12-18T01:55:42;-2.50;99.90
20815;DHT22;10568;48.176;16.316;2022-12-18T01:58:09;-2.50;99.90
20815;DHT22;10568;48.176;16.316;2022-12-18T02:00:35;-2.50;99.90
20815;DHT22;10568;48.176;16.316;2022-12-18T02:03:00;-2.50;99.90
20815;DHT22;10568;48.176;16.316;2022-12-18T02:08:30;-2.50;99.90
20815;DHT22;10568;48.176;16.316;2022-12-18T02:18:50;-2.60;99.90
20815;DHT22;10568;48.176;16.316;2022-12-18T02:27:09;-2.70;99.90
20815;DHT22;10568;48.176;16.316;2022-12-18T02:29:46;-2.80;99.90
20815;DHT22;10568;48.176;16.316;2022-12-18T02:32:16;-2.80;99.90
20815;DHT22;10568;48.176;16.316;2022-12-18T02:34:43;-2.80;99.90
20815;DHT22;10568;48.176;16.316;2022-12-18T02:37:12;-2.90;99.90
20815;DHT22;10568;48.176;16.316;2022-12-18T02:39:41;-2.90;99.90
20815;DHT22;10568;48.176;16.316;2022-12-18T02:42:08;-2.90;99.90
20815;DHT22;10568;48.176;16.316;2022-12-18T02:44:35;-3.00;99.90
20815;DHT22;10568;48.176;16.316;2022-12-18T02:47:10;-3.00;99.90
20815;DHT22;10568;48.176;16.316;2022-12-18T02:55:11;-3.10;99.90
20815;DHT22;10568;48.176;16.316;2022-12-18T03:00:23;-3.20;99.90
20815;DHT22;10568;48.176;16.316;2022-12-18T03:05:31;-3.30;99.90
20815;DHT22;10568;48.176;16.316;2022-12-18T03:08:02;-3.40;99.90
20815;DHT22;10568;48.176;16.316;2022-12-18T03:10:31;-3.40;99.90
20815;DHT22;10568;48.176;16.316;2022-12-18T03:13:21;-3.40;99.90
20815;DHT22;10568;48.176;16.316;2022-12-18T03:15:51;-3.50;99.90
20815;DHT22;10568;48.176;16.316;2022-12-18T03:18:38;-3.50;99.90
20815;DHT22;10568;48.176;16.316;2022-12-18T03:21:06;-3.60;99.90
20815;DHT22;10568;48.176;16.316;2022-12-18T03:23:40;-3.60;99.90
20815;DHT22;10568;48.176;16.316;2022-12-18T03:26:09;-3.60;99.90
20815;DHT22;10568;48.176;16.316;2022-12-18T03:28:40;-3.70;99.90
20815;DHT22;10568;48.176;16.316;2022-12-18T03:31:10;-3.70;99.90
20815;DHT22;10568;48.176;16.316;2022-12-18T03:34:03;-3.70;99.90
20815;DHT22;10568;48.176;16.316;2022-12-18T03:36:27;-3.80;99.90
20815;DHT22;10568;48.176;16.316;2022-12-18T03:38:53;-3.80;99.90
20815;DHT22;10568;48.176;16.316;2022-12-18T03:41:28;-3.80;99.90
20815;DHT22;10568;48.176;16.316;2022-12-18T03:44:13;-3.90;99.90
20815;DHT22;10568;48.176;16.316;2022-12-18T03:49:50;-4.00;99.90
20815;DHT22;10568;48.176;16.316;2022-12-18T03:54:58;-4.00;99.90
20815;DHT22;10568;48.176;16.316;2022-12-18T03:57:28;-4.10;99.90
20815;DHT22;10568;48.176;16.316;2022-12-18T04:00:00;-4.10;99.90
20815;DHT22;10568;48.176;16.316;2022-12-18T04:02:27;-4.10;99.90
20815;DHT22;10568;48.176;16.316;2022-12-18T04:04:58;-4.10;99.90
20815;DHT22;10568;48.176;16.316;2022-12-18T04:07:25;-4.20;99.90
20815;DHT22;10568;48.176;16.316;2022-12-18T04:09:54;-4.20;99.90
20815;DHT22;10568;48.176;16.316;2022-12-18T04:12:26;-4.20;99.90
20815;DHT22;10568;48.176;16.316;2022-12-18T04:14:54;-4.20;99.90
20815;DHT22;10568;48.176;16.316;2022-12-18T04:17:20;-4.30;99.90
20815;DHT22;10568;48.176;16.316;2022-12-18T04:19:46;-4.30;99.90
20815;DHT22;10568;48.176;16.316;2022-12-18T04:22:11;-4.30;99.90
20815;DHT22;10568;48.176;16.316;2022-12-18T04:24:37;-4.30;99.90
20815;DHT22;10568;48.176;16.316;2022-12-18T04:27:03;-4.40;99.90
20815;DHT22;10568;48.176;16.316;2022-12-18T04:29:29;-4.40;99.90
20815;DHT22;10568;48.176;16.316;2022-12-18T04:31:55;-4.30;99.90
20815;DHT22;10568;48.176;16.316;2022-12-18T04:34:21;-4.40;99.90
20815;DHT22;10568;48.176;16.316;2022-12-18T04:36:47;-4.40;99.90
20815;DHT22;10568;48.176;16.316;2022-12-18T04:39:13;-4.40;99.90
20815;DHT22;10568;48.176;16.316;2022-12-18T04:41:39;-4.50;99.90
20815;DHT22;10568;48.176;16.316;2022-12-18T04:44:05;-4.40;99.90
20815;DHT22;10568;48.176;16.316;2022-12-18T04:46:31;-4.40;99.90
20815;DHT22;10568;48.176;16.316;2022-12-18T04:48:56;-4.50;99.90
20815;DHT22;10568;48.176;16.316;2022-12-18T04:51:22;-4.40;99.90
20815;DHT22;10568;48.176;16.316;2022-12-18T04:53:48;-4.50;99.90
20815;DHT22;10568;48.176;16.316;2022-12-18T04:56:15;-4.50;99.90
20815;DHT22;10568;48.176;16.316;2022-12-18T04:58:42;-4.50;99.90
20815;DHT22;10568;48.176;16.316;2022-12-18T05:01:09;-4.50;99.90
20815;DHT22;10568;48.176;16.316;2022-12-18T05:03:36;-4.60;99.90
20815;DHT22;10568;48.176;16.316;2022-12-18T05:06:03;-4.60;99.90
20815;DHT22;10568;48.176;16.316;2022-12-18T05:08:29;-4.60;99.90
20815;DHT22;10568;48.176;16.316;2022-12-18T05:11:07;-4.70;99.90
20815;DHT22;10568;48.176;16.316;2022-12-18T05:13:33;-4.70;99.90
20815;DHT22;10568;48.176;16.316;2022-12-18T05:15:59;-4.70;99.90
20815;DHT22;10568;48.176;16.316;2022-12-18T05:18:25;-4.80;99.90
20815;DHT22;10568;48.176;16.316;2022-12-18T05:20:52;-4.90;99.90
20815;DHT22;10568;48.176;16.316;2022-12-18T05:23:19;-4.80;99.90
20815;DHT22;10568;48.176;16.316;2022-12-18T05:25:56;-4.90;99.90
20815;DHT22;10568;48.176;16.316;2022-12-18T05:28:23;-4.90;99.90
20815;DHT22;10568;48.176;16.316;2022-12-18T05:30:54;-4.90;99.90
20815;DHT22;10568;48.176;16.316;2022-12-18T05:33:22;-4.90;99.90
20815;DHT22;10568;48.176;16.316;2022-12-18T05:35:56;-5.00;99.90
20815;DHT22;10568;48.176;16.316;2022-12-18T05:38:23;-5.00;99.90
20815;DHT22;10568;48.176;16.316;2022-12-18T05:40:50;-5.00;99.90
20815;DHT22;10568;48.176;16.316;2022-12-18T05:43:16;-5.10;99.90
20815;DHT22;10568;48.176;16.316;2022-12-18T05:45:42;-5.00;99.90
20815;DHT22;10568;48.176;16.316;2022-12-18T05:48:09;-5.10;99.90
20815;DHT22;10568;48.176;16.316;2022-12-18T05:50:36;-5.10;99.90
20815;DHT22;10568;48.176;16.316;2022-12-18T05:53:03;-5.20;99.90
20815;DHT22;10568;48.176;16.316;2022-12-18T05:55:29;-5.20;99.90
20815;DHT22;10568;48.176;16.316;2022-12-18T05:57:57;-5.20;99.90
20815;DHT22;10568;48.176;16.316;2022-12-18T06:00:23;-5.30;99.90
20815;DHT22;10568;48.176;16.316;2022-12-18T06:02:49;-5.20;99.90
20815;DHT22;10568;48.176;16.316;2022-12-18T06:05:14;-5.30;99.90
20815;DHT22;10568;48.176;16.316;2022-12-18T06:07:40;-5.30;99.90
20815;DHT22;10568;48.176;16.316;2022-12-18T06:10:06;-5.30;99.90
20815;DHT22;10568;48.176;16.316;2022-12-18T06:12:32;-5.30;99.90
20815;DHT22;10568;48.176;16.316;2022-12-18T06:14:59;-5.30;99.90
20815;DHT22;10568;48.176;16.316;2022-12-18T06:17:30;-5.30;99.90
20815;DHT22;10568;48.176;16.316;2022-12-18T06:19:56;-5.30;99.90
20815;DHT22;10568;48.176;16.316;2022-12-18T06:22:22;-5.30;99.90
20815;DHT22;10568;48.176;16.316;2022-12-18T06:24:48;-5.40;99.90
20815;DHT22;10568;48.176;16.316;2022-12-18T06:27:13;-5.40;99.90
20815;DHT22;10568;48.176;16.316;2022-12-18T06:29:39;-5.40;99.90
20815;DHT22;10568;48.176;16.316;2022-12-18T06:32:05;-5.40;99.90
20815;DHT22;10568;48.176;16.316;2022-12-18T06:34:31;-5.40;99.90
20815;DHT22;10568;48.176;16.316;2022-12-18T06:36:57;-5.40;99.90
20815;DHT22;10568;48.176;16.316;2022-12-18T06:39:23;-5.50;99.90
20815;DHT22;10568;48.176;16.316;2022-12-18T06:41:49;-5.40;99.90
20815;DHT22;10568;48.176;16.316;2022-12-18T06:44:15;-5.40;99.90
20815;DHT22;10568;48.176;16.316;2022-12-18T06:46:41;-5.50;99.90
20815;DHT22;10568;48.176;16.316;2022-12-18T06:49:06;-5.50;99.90
20815;DHT22;10568;48.176;16.316;2022-12-18T06:51:34;-5.40;99.90
20815;DHT22;10568;48.176;16.316;2022-12-18T06:54:01;-5.40;99.90
20815;DHT22;10568;48.176;16.316;2022-12-18T06:56:27;-5.40;99.90
20815;DHT22;10568;48.176;16.316;2022-12-18T06:58:53;-5.40;99.90
20815;DHT22;10568;48.176;16.316;2022-12-18T07:01:19;-5.40;99.90
20815;DHT22;10568;48.176;16.316;2022-12-18T07:03:45;-5.40;99.90
20815;DHT22;10568;48.176;16.316;2022-12-18T07:06:29;-5.40;99.90
20815;DHT22;10568;48.176;16.316;2022-12-18T07:08:54;-5.40;99.90
20815;DHT22;10568;48.176;16.316;2022-12-18T07:11:20;-5.40;99.90
20815;DHT22;10568;48.176;16.316;2022-12-18T07:13:46;-5.40;99.90
20815;DHT22;10568;48.176;16.316;2022-12-18T07:16:15;-5.40;99.90
20815;DHT22;10568;48.176;16.316;2022-12-18T07:18:40;-5.40;99.90
20815;DHT22;10568;48.176;16.316;2022-12-18T07:21:08;-5.30;99.90
20815;DHT22;10568;48.176;16.316;2022-12-18T07:23:35;-5.30;99.90
20815;DHT22;10568;48.176;16.316;2022-12-18T07:26:12;-5.30;99.90
20815;DHT22;10568;48.176;16.316;2022-12-18T07:28:39;-5.30;99.90
20815;DHT22;10568;48.176;16.316;2022-12-18T07:31:13;-5.30;99.90
20815;DHT22;10568;48.176;16.316;2022-12-18T07:33:39;-5.30;99.90
20815;DHT22;10568;48.176;16.316;2022-12-18T07:36:06;-5.20;99.90
20815;DHT22;10568;48.176;16.316;2022-12-18T07:38:32;-5.20;99.90
20815;DHT22;10568;48.176;16.316;2022-12-18T07:41:03;-5.20;99.90
20815;DHT22;10568;48.176;16.316;2022-12-18T07:43:29;-5.20;99.90
20815;DHT22;10568;48.176;16.316;2022-12-18T07:45:55;-5.10;99.90
20815;DHT22;10568;48.176;16.316;2022-12-18T07:48:21;-5.10;99.90
20815;DHT22;10568;48.176;16.316;2022-12-18T07:50:46;-5.10;99.90
20815;DHT22;10568;48.176;16.316;2022-12-18T07:53:12;-5.00;99.90
20815;DHT22;10568;48.176;16.316;2022-12-18T07:55:38;-5.00;99.90
20815;DHT22;10568;48.176;16.316;2022-12-18T07:58:04;-5.00;99.90
20815;DHT22;10568;48.176;16.316;2022-12-18T08:00:30;-4.90;99.90
20815;DHT22;10568;48.176;16.316;2022-12-18T08:02:56;-4.90;99.90
20815;DHT22;10568;48.176;16.316;2022-12-18T08:05:22;-4.90;99.90
20815;DHT22;10568;48.176;16.316;2022-12-18T08:07:49;-4.80;99.90
20815;DHT22;10568;48.176;16.316;2022-12-18T08:10:15;-4.80;99.90
20815;DHT22;10568;48.176;16.316;2022-12-18T08:12:40;-4.70;99.90
20815;DHT22;10568;48.176;16.316;2022-12-18T08:15:08;-4.60;99.90
20815;DHT22;10568;48.176;16.316;2022-12-18T08:17:34;-4.60;99.90
20815;DHT22;10568;48.176;16.316;2022-12-18T08:19:59;-4.60;99.90
20815;DHT22;10568;48.176;16.316;2022-12-18T08:22:25;-4.40;99.90
20815;DHT22;10568;48.176;16.316;2022-12-18T08:24:51;-4.40;99.90
20815;DHT22;10568;48.176;16.316;2022-12-18T08:27:17;-4.40;99.90
20815;DHT22;10568;48.176;16.316;2022-12-18T08:29:43;-4.30;99.90
20815;DHT22;10568;48.176;16.316;2022-12-18T08:32:10;-4.10;99.90
20815;DHT22;10568;48.176;16.316;2022-12-18T08:34:35;-3.90;99.90
20815;DHT22;10568;48.176;16.316;2022-12-18T08:37:01;-3.80;99.90
20815;DHT22;10568;48.176;16.316;2022-12-18T08:39:27;-3.70;99.90
20815;DHT22;10568;48.176;16.316;2022-12-18T08:41:52;-3.60;99.90
20815;DHT22;10568;48.176;16.316;2022-12-18T08:44:36;-3.40;99.90
20815;DHT22;10568;48.176;16.316;2022-12-18T08:47:07;-3.30;99.90
20815;DHT22;10568;48.176;16.316;2022-12-18T08:49:33;-3.10;99.90
20815;DHT22;10568;48.176;16.316;2022-12-18T08:51:59;-2.90;99.90
20815;DHT22;10568;48.176;16.316;2022-12-18T08:54:25;-2.70;99.90
20815;DHT22;10568;48.176;16.316;2022-12-18T08:56:51;-2.60;99.90
20815;DHT22;10568;48.176;16.316;2022-12-18T08:59:18;-2.50;99.90
20815;DHT22;10568;48.176;16.316;2022-12-18T09:01:44;-2.40;99.90
20815;DHT22;10568;48.176;16.316;2022-12-18T09:04:10;-2.30;99.90
20815;DHT22;10568;48.176;16.316;2022-12-18T09:06:36;-2.10;99.90
20815;DHT22;10568;48.176;16.316;2022-12-18T09:09:03;-2.00;99.90
20815;DHT22;10568;48.176;16.316;2022-12-18T09:11:30;-1.90;99.90
20815;DHT22;10568;48.176;16.316;2022-12-18T09:13:57;-1.80;99.90
20815;DHT22;10568;48.176;16.316;2022-12-18T09:16:24;-1.80;99.90
20815;DHT22;10568;48.176;16.316;2022-12-18T09:18:50;-1.70;99.90
20815;DHT22;10568;48.176;16.316;2022-12-18T09:21:20;-1.70;99.90
20815;DHT22;10568;48.176;16.316;2022-12-18T09:23:54;-1.60;99.90
20815;DHT22;10568;48.176;16.316;2022-12-18T09:26:21;-1.60;99.90
20815;DHT22;10568;48.176;16.316;2022-12-18T09:28:46;-1.50;99.90
20815;DHT22;10568;48.176;16.316;2022-12-18T09:31:13;-1.40;99.90
20815;DHT22;10568;48.176;16.316;2022-12-18T09:33:39;-1.30;99.90
20815;DHT22;10568;48.176;16.316;2022-12-18T09:36:07;-1.30;99.90
20815;DHT22;10568;48.176;16.316;2022-12-18T09:38:33;-1.20;99.90
20815;DHT22;10568;48.176;16.316;2022-12-18T09:41:14;-1.30;99.90
20815;DHT22;10568;48.176;16.316;2022-12-18T09:43:49;-1.30;99.90
20815;DHT22;10568;48.176;16.316;2022-12-18T09:46:25;-1.60;99.90
20815;DHT22;10568;48.176;16.316;2022-12-18T09:48:54;-1.30;99.90
20815;DHT22;10568;48.176;16.316;2022-12-18T09:51:32;-1.30;99.90
20815;DHT22;10568;48.176;16.316;2022-12-18T09:54:30;-1.30;99.90
20815;DHT22;10568;48.176;16.316;2022-12-18T09:56:57;-1.20;99.90
20815;DHT22;10568;48.176;16.316;2022-12-18T09:59:38;-1.10;99.90
20815;DHT22;10568;48.176;16.316;2022-12-18T10:02:19;-1.20;99.90
20815;DHT22;10568;48.176;16.316;2022-12-18T10:04:56;-1.10;99.90
20815;DHT22;10568;48.176;16.316;2022-12-18T10:07:55;-1.10;99.90
20815;DHT22;10568;48.176;16.316;2022-12-18T10:13:52;-1.20;99.90
20815;DHT22;10568;48.176;16.316;2022-12-18T10:16:40;-1.20;99.90
20815;DHT22;10568;48.176;16.316;2022-12-18T10:21:51;-1.00;99.90
20815;DHT22;10568;48.176;16.316;2022-12-18T10:24:35;-0.90;99.90
20815;DHT22;10568;48.176;16.316;2022-12-18T10:29:37;-0.90;99.90
20815;DHT22;10568;48.176;16.316;2022-12-18T10:32:03;-1.00;99.90
20815;DHT22;10568;48.176;16.316;2022-12-18T10:34:29;-1.00;99.90
20815;DHT22;10568;48.176;16.316;2022-12-18T10:36:55;-0.80;99.90
20815;DHT22;10568;48.176;16.316;2022-12-18T10:39:23;-0.90;99.90
20815;DHT22;10568;48.176;16.316;2022-12-18T10:41:49;-0.80;99.90
20815;DHT22;10568;48.176;16.316;2022-12-18T10:44:19;-0.70;99.90
20815;DHT22;10568;48.176;16.316;2022-12-18T10:46:47;-0.80;99.90
20815;DHT22;10568;48.176;16.316;2022-12-18T10:49:24;-0.70;99.90
20815;DHT22;10568;48.176;16.316;2022-12-18T10:51:51;-0.80;99.90
20815;DHT22;10568;48.176;16.316;2022-12-18T10:54:30;-0.70;99.90
20815;DHT22;10568;48.176;16.316;2022-12-18T10:59:54;-0.70;99.90
20815;DHT22;10568;48.176;16.316;2022-12-18T11:02:46;-0.60;99.90
20815;DHT22;10568;48.176;16.316;2022-12-18T11:05:33;-0.80;99.90
20815;DHT22;10568;48.176;16.316;2022-12-18T11:08:00;-0.60;99.90
20815;DHT22;10568;48.176;16.316;2022-12-18T11:10:32;-0.60;99.90
20815;DHT22;10568;48.176;16.316;2022-12-18T11:13:18;-0.60;99.90
20815;DHT22;10568;48.176;16.316;2022-12-18T11:15:45;-0.60;99.90
20815;DHT22;10568;48.176;16.316;2022-12-18T11:18:32;-0.60;99.90
20815;DHT22;10568;48.176;16.316;2022-12-18T11:21:09;-0.60;99.90
20815;DHT22;10568;48.176;16.316;2022-12-18T11:23:37;-0.50;99.90
20815;DHT22;10568;48.176;16.316;2022-12-18T11:26:09;-0.50;99.90
20815;DHT22;10568;48.176;16.316;2022-12-18T11:31:20;-0.40;99.90
20815;DHT22;10568;48.176;16.316;2022-12-18T11:36:23;-0.50;99.90
20815;DHT22;10568;48.176;16.316;2022-12-18T11:38:53;-0.50;99.90
20815;DHT22;10568;48.176;16.316;2022-12-18T11:41:32;-0.70;99.90
20815;DHT22;10568;48.176;16.316;2022-12-18T11:44:34;-0.50;99.90
20815;DHT22;10568;48.176;16.316;2022-12-18T11:49:40;-0.40;99.90
20815;DHT22;10568;48.176;16.316;2022-12-18T11:52:33;-0.30;99.90
20815;DHT22;10568;48.176;16.316;2022-12-18T11:55:10;-0.40;99.90
20815;DHT22;10568;48.176;16.316;2022-12-18T12:05:48;-0.30;99.90
20815;DHT22;10568;48.176;16.316;2022-12-18T12:11:35;-0.40;99.90
20815;DHT22;10568;48.176;16.316;2022-12-18T12:14:26;-0.30;99.90
20815;DHT22;10568;48.176;16.316;2022-12-18T12:22:45;-0.30;99.90
20815;DHT22;10568;48.176;16.316;2022-12-18T12:30:35;-0.20;99.90
20815;DHT22;10568;48.176;16.316;2022-12-18T12:38:49;-0.20;99.90
20815;DHT22;10568;48.176;16.316;2022-12-18T12:41:22;-0.20;99.90
20815;DHT22;10568;48.176;16.316;2022-12-18T12:44:14;-0.30;99.90
20815;DHT22;10568;48.176;16.316;2022-12-18T12:46:42;-0.30;99.90
20815;DHT22;10568;48.176;16.316;2022-12-18T12:49:15;-0.40;99.90
20815;DHT22;10568;48.176;16.316;2022-12-18T12:51:50;-0.40;99.90
20815;DHT22;10568;48.176;16.316;2022-12-18T12:54:24;-0.40;99.90
20815;DHT22;10568;48.176;16.316;2022-12-18T12:57:33;-0.40;99.90
20815;DHT22;10568;48.176;16.316;2022-12-18T13:02:56;-0.40;99.90
20815;DHT22;10568;48.176;16.316;2022-12-18T13:05:48;-0.40;99.90
20815;DHT22;10568;48.176;16.316;2022-12-18T13:08:28;-0.40;99.90
20815;DHT22;10568;48.176;16.316;2022-12-18T13:10:56;-0.40;99.90
20815;DHT22;10568;48.176;16.316;2022-12-18T13:13:51;-0.50;99.90
20815;DHT22;10568;48.176;16.316;2022-12-18T13:16:23;-0.70;99.90
20815;DHT22;10568;48.176;16.316;2022-12-18T13:18:54;-0.50;99.90
20815;DHT22;10568;48.176;16.316;2022-12-18T13:23:51;-0.60;99.90
20815;DHT22;10568;48.176;16.316;2022-12-18T13:31:14;-0.70;99.90
20815;DHT22;10568;48.176;16.316;2022-12-18T13:33:44;-0.60;99.90
20815;DHT22;10568;48.176;16.316;2022-12-18T13:39:09;-0.60;99.90
20815;DHT22;10568;48.176;16.316;2022-12-18T13:41:35;-0.60;99.90
20815;DHT22;10568;48.176;16.316;2022-12-18T13:44:32;-0.60;99.90
20815;DHT22;10568;48.176;16.316;2022-12-18T13:47:00;-0.60;99.90
20815;DHT22;10568;48.176;16.316;2022-12-18T13:49:46;-0.60;99.90
20815;DHT22;10568;48.176;16.316;2022-12-18T13:52:26;-0.60;99.90
20815;DHT22;10568;48.176;16.316;2022-12-18T13:54:56;-0.60;99.90
20815;DHT22;10568;48.176;16.316;2022-12-18T13:59:57;-0.70;99.90
20815;DHT22;10568;48.176;16.316;2022-12-18T14:02:25;-0.70;99.90
20815;DHT22;10568;48.176;16.316;2022-12-18T14:04:51;-0.70;99.90
20815;DHT22;10568;48.176;16.316;2022-12-18T14:07:25;-0.70;99.90
20815;DHT22;10568;48.176;16.316;2022-12-18T14:09:57;-0.70;99.90
20815;DHT22;10568;48.176;16.316;2022-12-18T14:12:29;-0.80;99.90
20815;DHT22;10568;48.176;16.316;2022-12-18T14:20:43;-0.90;99.90
20815;DHT22;10568;48.176;16.316;2022-12-18T14:23:40;-0.90;99.90
20815;DHT22;10568;48.176;16.316;2022-12-18T14:26:38;-0.90;99.90
20815;DHT22;10568;48.176;16.316;2022-12-18T14:29:27;-0.90;99.90
20815;DHT22;10568;48.176;16.316;2022-12-18T14:32:17;-1.00;99.90
20815;DHT22;10568;48.176;16.316;2022-12-18T14:34:53;-0.90;99.90
20815;DHT22;10568;48.176;16.316;2022-12-18T14:37:25;-1.10;99.90
20815;DHT22;10568;48.176;16.316;2022-12-18T14:39:59;-1.10;99.90
20815;DHT22;10568;48.176;16.316;2022-12-18T14:42:26;-1.10;99.90
20815;DHT22;10568;48.176;16.316;2022-12-18T14:47:57;-1.20;99.90
20815;DHT22;10568;48.176;16.316;2022-12-18T14:50:23;-1.20;99.90
20815;DHT22;10568;48.176;16.316;2022-12-18T14:52:49;-1.20;99.90
20815;DHT22;10568;48.176;16.316;2022-12-18T14:55:17;-1.20;99.90
20815;DHT22;10568;48.176;16.316;2022-12-18T14:57:43;-1.20;99.90
20815;DHT22;10568;48.176;16.316;2022-12-18T15:00:18;-1.20;99.90
20815;DHT22;10568;48.176;16.316;2022-12-18T15:02:48;-1.20;99.90
20815;DHT22;10568;48.176;16.316;2022-12-18T15:07:47;-1.30;99.90
20815;DHT22;10568;48.176;16.316;2022-12-18T15:10:21;-1.30;99.90
20815;DHT22;10568;48.176;16.316;2022-12-18T15:13:07;-1.30;99.90
20815;DHT22;10568;48.176;16.316;2022-12-18T15:20:25;-1.30;99.90
20815;DHT22;10568;48.176;16.316;2022-12-18T15:22:50;-1.30;99.90
20815;DHT22;10568;48.176;16.316;2022-12-18T15:25:32;-1.30;99.90
20815;DHT22;10568;48.176;16.316;2022-12-18T15:28:00;-1.30;99.90
20815;DHT22;10568;48.176;16.316;2022-12-18T15:30:26;-1.30;99.90
20815;DHT22;10568;48.176;16.316;2022-12-18T15:32:55;-1.30;99.90
20815;DHT22;10568;48.176;16.316;2022-12-18T15:38:49;-1.40;99.90
20815;DHT22;10568;48.176;16.316;2022-12-18T15:41:21;-1.30;99.90
20815;DHT22;10568;48.176;16.316;2022-12-18T15:43:51;-1.30;99.90
20815;DHT22;10568;48.176;16.316;2022-12-18T15:46:20;-1.30;99.90
20815;DHT22;10568;48.176;16.316;2022-12-18T15:51:33;-1.30;99.90
20815;DHT22;10568;48.176;16.316;2022-12-18T15:54:02;-1.30;99.90
20815;DHT22;10568;48.176;16.316;2022-12-18T15:56:29;-1.30;99.90
20815;DHT22;10568;48.176;16.316;2022-12-18T15:59:16;-1.30;99.90
20815;DHT22;10568;48.176;16.316;2022-12-18T16:01:45;-1.30;99.90
20815;DHT22;10568;48.176;16.316;2022-12-18T16:04:17;-1.30;99.90
20815;DHT22;10568;48.176;16.316;2022-12-18T16:06:45;-1.30;99.90
20815;DHT22;10568;48.176;16.316;2022-12-18T16:09:11;-1.30;99.90
20815;DHT22;10568;48.176;16.316;2022-12-18T16:11:39;-1.30;99.90
20815;DHT22;10568;48.176;16.316;2022-12-18T16:14:25;-1.20;99.90
20815;DHT22;10568;48.176;16.316;2022-12-18T16:16:54;-1.20;99.90
20815;DHT22;10568;48.176;16.316;2022-12-18T16:19:21;-1.20;99.90
20815;DHT22;10568;48.176;16.316;2022-12-18T16:21:48;-1.10;99.90
20815;DHT22;10568;48.176;16.316;2022-12-18T16:24:29;-1.20;99.90
20815;DHT22;10568;48.176;16.316;2022-12-18T16:26:57;-1.20;99.90
20815;DHT22;10568;48.176;16.316;2022-12-18T16:29:25;-1.10;99.90
20815;DHT22;10568;48.176;16.316;2022-12-18T16:31:53;-1.10;99.90
20815;DHT22;10568;48.176;16.316;2022-12-18T16:34:28;-1.10;99.90
20815;DHT22;10568;48.176;16.316;2022-12-18T16:36:55;-1.10;99.90
20815;DHT22;10568;48.176;16.316;2022-12-18T16:39:22;-1.00;99.90
20815;DHT22;10568;48.176;16.316;2022-12-18T16:41:48;-1.10;99.90
20815;DHT22;10568;48.176;16.316;2022-12-18T16:44:15;-1.10;99.90
20815;DHT22;10568;48.176;16.316;2022-12-18T16:46:41;-1.10;99.90
20815;DHT22;10568;48.176;16.316;2022-12-18T16:49:15;-1.10;99.90
20815;DHT22;10568;48.176;16.316;2022-12-18T16:51:42;-1.10;99.90
20815;DHT22;10568;48.176;16.316;2022-12-18T16:54:10;-1.10;99.90
20815;DHT22;10568;48.176;16.316;2022-12-18T16:56:37;-1.00;99.90
20815;DHT22;10568;48.176;16.316;2022-12-18T16:59:03;-1.00;99.90
20815;DHT22;10568;48.176;16.316;2022-12-18T17:01:31;-1.00;99.90
20815;DHT22;10568;48.176;16.316;2022-12-18T17:04:02;-1.00;99.90
20815;DHT22;10568;48.176;16.316;2022-12-18T17:06:32;-1.00;99.90
20815;DHT22;10568;48.176;16.316;2022-12-18T17:09:00;-1.00;99.90
20815;DHT22;10568;48.176;16.316;2022-12-18T17:11:28;-1.00;99.90
20815;DHT22;10568;48.176;16.316;2022-12-18T17:13:54;-1.00;99.90
20815;DHT22;10568;48.176;16.316;2022-12-18T17:16:21;-0.90;99.90
20815;DHT22;10568;48.176;16.316;2022-12-18T17:18:47;-0.90;99.90
20815;DHT22;10568;48.176;16.316;2022-12-18T17:21:14;-1.00;99.90
20815;DHT22;10568;48.176;16.316;2022-12-18T17:23:41;-1.00;99.90
20815;DHT22;10568;48.176;16.316;2022-12-18T17:26:09;-0.90;99.90
20815;DHT22;10568;48.176;16.316;2022-12-18T17:28:37;-1.00;99.90
20815;DHT22;10568;48.176;16.316;2022-12-18T17:31:21;-1.00;99.90
20815;DHT22;10568;48.176;16.316;2022-12-18T17:33:47;-0.90;99.90
20815;DHT22;10568;48.176;16.316;2022-12-18T17:36:16;-1.00;99.90
20815;DHT22;10568;48.176;16.316;2022-12-18T17:38:43;-0.90;99.90
20815;DHT22;10568;48.176;16.316;2022-12-18T17:41:10;-0.90;99.90